createdAt,value
2018-10-17T00:00:01.079Z,20.30
2018-10-17T00:02:29.502Z,24.97
2018-10-17T00:04:57.980Z,17.47
2018-10-17T00:07:26.459Z,18.43
2018-10-17T00:09:54.855Z,19.50
2018-10-17T00:12:23.287Z,17.60
2018-10-17T00:14:51.676Z,19.80
2018-10-17T00:17:20.085Z,17.73
2018-10-17T00:19:48.476Z,17.87
2018-10-17T00:22:16.920Z,18.03
2018-10-17T00:24:45.317Z,17.30
2018-10-17T00:27:13.699Z,21.53
2018-10-17T00:29:42.115Z,17.90
2018-10-17T00:32:10.510Z,19.33
2018-10-17T00:34:38.961Z,21.70
2018-10-17T00:37:07.378Z,18.50
2018-10-17T00:39:35.792Z,16.73
2018-10-17T00:42:04.207Z,20.93
2018-10-17T00:44:32.626Z,23.90
2018-10-17T00:47:01.087Z,23.07
2018-10-17T00:49:29.471Z,18.17
2018-10-17T00:51:57.864Z,17.20
2018-10-17T00:54:26.286Z,17.50
2018-10-17T00:56:54.679Z,18.70
2018-10-17T00:59:23.143Z,19.27
2018-10-17T01:01:51.543Z,22.33
2018-10-17T01:04:19.968Z,16.73
2018-10-17T01:06:48.379Z,21.00
2018-10-17T01:09:16.805Z,18.63
2018-10-17T01:11:45.198Z,19.97
2018-10-17T01:14:13.627Z,18.67
2018-10-17T01:16:42.100Z,19.50
2018-10-17T01:19:10.485Z,17.50
2018-10-17T01:21:38.942Z,22.23
2018-10-17T01:24:07.376Z,19.43
2018-10-17T01:26:35.778Z,21.33
2018-10-17T01:29:04.285Z,21.73
2018-10-17T01:31:32.693Z,19.20
2018-10-17T01:34:01.351Z,19.93
2018-10-17T01:36:29.763Z,20.70
2018-10-17T01:38:58.185Z,19.17
2018-10-17T01:41:26.603Z,19.20
2018-10-17T01:43:55.030Z,22.27
2018-10-17T01:46:23.442Z,20.30
2018-10-17T01:48:51.885Z,19.83
2018-10-17T01:51:20.294Z,18.80
2018-10-17T01:53:48.695Z,19.00
2018-10-17T01:56:17.115Z,18.73
2018-10-17T01:58:45.517Z,18.93
2018-10-17T02:01:13.961Z,24.30
2018-10-17T02:03:42.303Z,17.40
2018-10-17T02:06:10.695Z,16.57
2018-10-17T02:08:39.078Z,18.33
2018-10-17T02:11:07.501Z,18.13
2018-10-17T02:13:35.854Z,20.97
2018-10-17T02:16:04.262Z,20.43
2018-10-17T02:18:32.630Z,23.10
2018-10-17T02:21:01.019Z,21.30
2018-10-17T02:23:29.419Z,19.83
2018-10-17T02:25:57.808Z,19.03
2018-10-17T02:28:26.266Z,19.27
2018-10-17T02:30:54.701Z,18.93
2018-10-17T02:33:23.107Z,19.67
2018-10-17T02:35:51.563Z,19.20
2018-10-17T02:38:19.966Z,20.73
2018-10-17T02:40:48.322Z,19.97
2018-10-17T02:43:16.775Z,19.20
2018-10-17T02:45:45.080Z,22.83
2018-10-17T02:48:13.515Z,20.87
2018-10-17T02:50:41.919Z,18.87
2018-10-17T02:53:10.393Z,20.00
2018-10-17T02:55:38.718Z,20.77
2018-10-17T02:58:07.149Z,17.40
2018-10-17T03:00:35.542Z,17.63
2018-10-17T03:03:03.951Z,22.70
2018-10-17T03:05:32.308Z,21.47
2018-10-17T03:08:00.728Z,22.67
2018-10-17T03:10:29.103Z,21.60
2018-10-17T03:12:57.496Z,24.93
2018-10-17T03:15:25.876Z,20.20
2018-10-17T03:17:54.263Z,18.70
2018-10-17T03:20:22.665Z,22.57
2018-10-17T03:22:51.092Z,21.77
2018-10-17T03:25:19.526Z,21.70
2018-10-17T03:27:47.960Z,19.77
2018-10-17T03:30:16.466Z,20.90
2018-10-17T03:32:44.851Z,21.10
2018-10-17T03:35:13.337Z,20.70
2018-10-17T03:37:41.687Z,21.43
2018-10-17T03:40:10.061Z,21.67
2018-10-17T03:42:38.455Z,18.20
2018-10-17T03:45:07.250Z,22.30
2018-10-17T03:47:35.673Z,22.47
2018-10-17T03:50:04.131Z,21.03
2018-10-17T03:52:32.520Z,22.27
2018-10-17T03:55:00.925Z,20.20
2018-10-17T03:57:29.316Z,21.90
2018-10-17T03:59:57.690Z,21.13
2018-10-17T04:02:26.087Z,20.73
2018-10-17T04:04:54.514Z,21.67
2018-10-17T04:07:22.951Z,20.20
2018-10-17T04:09:51.342Z,21.60
2018-10-17T04:12:19.702Z,22.53
2018-10-17T04:14:48.079Z,19.30
2018-10-17T04:17:16.504Z,19.33
2018-10-17T04:19:44.857Z,23.57
2018-10-17T04:22:13.286Z,25.27
2018-10-17T04:24:41.642Z,19.50
2018-10-17T04:27:09.987Z,26.00
2018-10-17T04:29:38.342Z,19.83
2018-10-17T04:32:06.726Z,21.50
2018-10-17T04:34:35.088Z,22.73
2018-10-17T04:37:03.503Z,24.53
2018-10-17T04:39:31.838Z,24.10
2018-10-17T04:42:00.200Z,46.43
2018-10-17T04:44:28.587Z,61.47
2018-10-17T04:46:56.979Z,47.57
2018-10-17T04:49:25.311Z,49.57
2018-10-17T04:51:53.655Z,39.30
2018-10-17T04:54:22.022Z,26.43
2018-10-17T04:56:50.375Z,21.13
2018-10-17T04:59:18.740Z,21.73
2018-10-17T05:01:47.083Z,18.70
2018-10-17T05:04:15.451Z,18.50
2018-10-17T05:06:43.818Z,22.80
2018-10-17T05:09:12.187Z,19.40
2018-10-17T05:11:41.107Z,22.60
2018-10-17T05:14:09.482Z,19.93
2018-10-17T05:16:37.825Z,25.60
2018-10-17T05:19:06.210Z,23.20
2018-10-17T05:21:34.578Z,22.93
2018-10-17T05:24:02.999Z,23.77
2018-10-17T05:26:31.386Z,21.53
2018-10-17T05:28:59.796Z,20.97
2018-10-17T05:31:28.171Z,23.27
2018-10-17T05:33:56.590Z,22.90
2018-10-17T05:36:25.048Z,24.27
2018-10-17T05:38:53.450Z,23.80
2018-10-17T05:41:21.826Z,21.20
2018-10-17T05:43:50.354Z,20.20
2018-10-17T05:46:18.751Z,23.30
2018-10-17T05:48:47.170Z,22.57
2018-10-17T05:51:15.725Z,26.77
2018-10-17T05:53:44.099Z,21.40
2018-10-17T05:56:12.503Z,27.20
2018-10-17T05:58:40.888Z,23.30
2018-10-17T06:01:09.339Z,21.40
2018-10-17T06:03:37.722Z,26.30
2018-10-17T06:06:06.185Z,21.57
2018-10-17T06:08:34.643Z,23.10
2018-10-17T06:11:03.148Z,31.70
2018-10-17T06:13:31.597Z,21.37
2018-10-17T06:15:59.994Z,22.37
2018-10-17T06:18:28.354Z,23.73
2018-10-17T06:20:56.771Z,22.10
2018-10-17T06:23:25.151Z,21.63
2018-10-17T06:25:53.519Z,23.60
2018-10-17T06:28:21.939Z,19.87
2018-10-17T06:30:50.342Z,21.83
2018-10-17T06:33:18.635Z,24.00
2018-10-17T06:35:46.983Z,23.57
2018-10-17T06:38:15.311Z,20.80
2018-10-17T06:40:43.670Z,23.87
2018-10-17T06:43:12.215Z,19.87
2018-10-17T06:45:40.499Z,21.30
2018-10-17T06:48:08.867Z,25.60
2018-10-17T06:50:37.243Z,24.80
2018-10-17T06:53:05.707Z,25.60
2018-10-17T06:55:34.055Z,21.53
2018-10-17T06:58:02.391Z,25.40
2018-10-17T07:00:30.741Z,24.00
2018-10-17T07:02:59.074Z,21.43
2018-10-17T07:05:27.448Z,21.33
2018-10-17T07:07:55.801Z,25.13
2018-10-17T07:10:24.179Z,22.27
2018-10-17T07:12:52.548Z,27.63
2018-10-17T07:15:21.027Z,21.87
2018-10-17T07:17:49.284Z,19.90
2018-10-17T07:20:17.656Z,19.63
2018-10-17T07:22:46.045Z,21.77
2018-10-17T07:25:14.473Z,20.57
2018-10-17T07:27:42.876Z,19.33
2018-10-17T07:30:11.246Z,19.53
2018-10-17T07:32:39.637Z,19.77
2018-10-17T07:35:08.765Z,18.50
2018-10-17T07:37:37.172Z,21.17
2018-10-17T07:40:05.767Z,19.17
2018-10-17T07:42:34.342Z,17.97
2018-10-17T07:45:02.725Z,19.63
2018-10-17T07:47:31.333Z,23.87
2018-10-17T07:49:59.786Z,21.73
2018-10-17T07:52:28.191Z,18.57
2018-10-17T07:54:56.726Z,18.83
2018-10-17T07:57:25.211Z,18.30
2018-10-17T07:59:53.752Z,20.77
2018-10-17T08:02:22.100Z,20.00
2018-10-17T08:04:50.593Z,19.40
2018-10-17T08:07:19.350Z,22.33
2018-10-17T08:09:47.756Z,21.97
2018-10-17T08:12:16.412Z,20.03
2018-10-17T08:14:44.657Z,20.40
2018-10-17T08:17:13.219Z,19.90
2018-10-17T08:19:41.618Z,22.27
2018-10-17T08:22:10.062Z,27.67
2018-10-17T08:24:38.519Z,24.27
2018-10-17T08:27:06.939Z,19.80
2018-10-17T08:29:35.316Z,20.23
2018-10-17T08:32:03.739Z,20.27
2018-10-17T08:34:32.163Z,19.13
2018-10-17T08:37:00.777Z,24.67
2018-10-17T08:39:29.007Z,24.77
2018-10-17T08:41:57.458Z,23.70
2018-10-17T08:44:25.915Z,20.27
2018-10-17T08:46:54.330Z,23.83
2018-10-17T08:49:22.976Z,21.97
2018-10-17T08:51:51.459Z,28.93
2018-10-17T08:54:20.000Z,24.03
2018-10-17T08:56:48.473Z,21.33
2018-10-17T08:59:16.810Z,21.00
2018-10-17T09:01:45.301Z,24.13
2018-10-17T09:04:13.688Z,20.57
2018-10-17T09:06:42.163Z,20.17
2018-10-17T09:09:12.181Z,21.00
2018-10-17T09:11:41.164Z,22.00
2018-10-17T09:14:10.085Z,20.60
2018-10-17T09:16:38.843Z,20.37
2018-10-17T09:19:07.854Z,20.90
2018-10-17T09:21:36.456Z,21.83
2018-10-17T09:24:04.821Z,18.80
2018-10-17T09:26:33.222Z,21.67
2018-10-17T09:29:01.611Z,26.20
2018-10-17T09:31:29.999Z,21.10
2018-10-17T09:33:58.446Z,30.80
2018-10-17T09:36:26.787Z,23.27
2018-10-17T09:38:55.186Z,20.13
2018-10-17T09:41:23.587Z,19.83
2018-10-17T09:43:51.957Z,21.70
2018-10-17T09:46:20.352Z,20.53
2018-10-17T09:48:48.708Z,21.97
2018-10-17T09:51:17.042Z,25.80
2018-10-17T09:53:45.460Z,20.23
2018-10-17T09:56:13.896Z,18.67
2018-10-17T09:58:42.395Z,21.33
2018-10-17T10:01:16.207Z,21.50
2018-10-17T10:03:44.700Z,25.70
2018-10-17T10:06:13.210Z,18.43
2018-10-17T10:08:41.573Z,20.40
2018-10-17T10:11:10.071Z,20.10
2018-10-17T10:13:38.412Z,23.43
2018-10-17T10:16:06.841Z,25.30
2018-10-17T10:18:35.280Z,19.40
2018-10-17T10:21:04.721Z,22.80
2018-10-17T10:23:33.283Z,21.53
2018-10-17T10:26:01.647Z,19.90
2018-10-17T10:28:30.154Z,19.80
2018-10-17T10:30:58.520Z,21.53
2018-10-17T10:33:26.958Z,18.80
2018-10-17T10:35:55.350Z,19.77
2018-10-17T10:38:23.750Z,19.50
2018-10-17T10:40:52.141Z,18.77
2018-10-17T10:43:20.562Z,17.70
2018-10-17T10:45:48.969Z,23.53
2018-10-17T10:48:17.487Z,18.37
2018-10-17T10:50:45.804Z,21.50
2018-10-17T10:53:14.315Z,24.13
2018-10-17T10:55:42.801Z,21.40
2018-10-17T10:58:11.254Z,19.87
2018-10-17T11:00:39.627Z,20.23
2018-10-17T11:03:08.070Z,17.30
2018-10-17T11:05:36.676Z,16.30
2018-10-17T11:08:05.108Z,20.40
2018-10-17T11:10:33.575Z,19.17
2018-10-17T11:13:01.996Z,18.60
2018-10-17T11:15:30.516Z,17.57
2018-10-17T11:17:59.005Z,18.97
2018-10-17T11:20:27.479Z,18.60
2018-10-17T11:22:55.963Z,17.70
2018-10-17T11:25:24.459Z,17.80
2018-10-17T11:27:53.055Z,17.40
2018-10-17T11:30:21.597Z,18.90
2018-10-17T11:32:50.108Z,23.27
2018-10-17T11:35:18.783Z,24.77
2018-10-17T11:37:47.293Z,18.70
2018-10-17T11:40:15.837Z,16.23
2018-10-17T11:42:44.311Z,16.80
2018-10-17T11:45:12.832Z,22.30
2018-10-17T11:47:41.391Z,22.67
2018-10-17T11:50:10.317Z,17.43
2018-10-17T11:52:39.203Z,15.80
2018-10-17T11:55:07.962Z,14.93
2018-10-17T11:57:36.312Z,15.70
2018-10-17T12:00:06.557Z,16.40
2018-10-17T12:02:34.911Z,17.90
2018-10-17T12:05:03.597Z,15.03
2018-10-17T12:07:31.706Z,17.57
2018-10-17T12:10:00.092Z,14.90
2018-10-17T12:12:28.536Z,15.33
2018-10-17T12:14:56.859Z,16.67
2018-10-17T12:17:26.439Z,17.37
2018-10-17T12:19:54.870Z,17.17
2018-10-17T12:22:23.158Z,14.30
2018-10-17T12:24:51.518Z,15.87
2018-10-17T12:27:19.994Z,13.80
2018-10-17T12:29:48.266Z,14.40
2018-10-17T12:32:16.644Z,14.67
2018-10-17T12:34:45.004Z,15.33
2018-10-17T12:37:13.342Z,17.00
2018-10-17T12:39:41.842Z,15.17
2018-10-17T12:42:10.046Z,17.43
2018-10-17T12:44:38.448Z,13.40
2018-10-17T12:47:06.858Z,16.00
2018-10-17T12:49:35.307Z,12.33
2018-10-17T12:52:03.753Z,19.80
2018-10-17T12:54:32.022Z,13.40
2018-10-17T12:57:00.453Z,12.87
2018-10-17T12:59:28.825Z,15.60
2018-10-17T13:01:57.698Z,14.17
2018-10-17T13:04:26.099Z,12.93
2018-10-17T13:06:54.585Z,13.37
2018-10-17T13:09:22.936Z,12.83
2018-10-17T13:11:51.328Z,11.93
2018-10-17T13:14:19.683Z,12.50
2018-10-17T13:16:48.090Z,13.73
2018-10-17T13:19:16.494Z,14.33
2018-10-17T13:21:44.919Z,14.90
2018-10-17T13:24:13.292Z,15.40
2018-10-17T13:26:41.680Z,11.27
2018-10-17T13:29:10.052Z,12.40
2018-10-17T13:31:38.583Z,12.60
2018-10-17T13:34:07.278Z,13.70
2018-10-17T13:36:35.678Z,13.53
2018-10-17T13:39:06.443Z,12.20
2018-10-17T13:41:35.088Z,12.87
2018-10-17T13:44:03.519Z,12.70
2018-10-17T13:46:31.930Z,15.53
2018-10-17T13:49:00.358Z,12.10
2018-10-17T13:51:28.735Z,15.37
2018-10-17T13:53:57.394Z,13.00
2018-10-17T13:56:25.789Z,13.33
2018-10-17T13:58:54.151Z,19.23
2018-10-17T14:01:22.543Z,11.87
2018-10-17T14:03:50.986Z,12.73
2018-10-17T14:06:19.464Z,12.50
2018-10-17T14:08:47.838Z,12.70
2018-10-17T14:11:16.354Z,12.73
2018-10-17T14:13:44.671Z,10.67
2018-10-17T14:16:13.070Z,14.03
2018-10-17T14:18:41.571Z,12.77
2018-10-17T14:21:10.039Z,13.57
2018-10-17T14:23:38.464Z,10.53
2018-10-17T14:26:06.783Z,11.50
2018-10-17T14:28:35.175Z,13.57
2018-10-17T14:31:03.655Z,11.43
2018-10-17T14:33:32.034Z,12.83
2018-10-17T14:36:00.426Z,11.20
2018-10-17T14:38:28.915Z,12.47
2018-10-17T14:40:57.273Z,11.43
2018-10-17T14:43:25.638Z,12.50
2018-10-17T14:45:53.971Z,10.87
2018-10-17T14:48:22.359Z,10.87
2018-10-17T14:50:50.724Z,11.53
2018-10-17T14:53:19.265Z,11.97
2018-10-17T14:55:47.538Z,11.90
2018-10-17T14:58:15.823Z,11.67
2018-10-17T15:00:44.262Z,10.60
2018-10-17T15:03:12.636Z,10.10
2018-10-17T15:05:40.978Z,10.00
2018-10-17T15:08:09.448Z,11.40
2018-10-17T15:10:37.884Z,12.43
2018-10-17T15:13:06.191Z,10.20
2018-10-17T15:15:39.167Z,12.30
2018-10-17T15:18:07.771Z,11.13
2018-10-17T15:20:36.143Z,13.63
2018-10-17T15:23:04.518Z,13.53
2018-10-17T15:25:32.851Z,12.60
2018-10-17T15:28:01.454Z,9.97
2018-10-17T15:30:29.797Z,10.93
2018-10-17T15:32:58.227Z,10.47
2018-10-17T15:35:26.567Z,13.40
2018-10-17T15:37:54.933Z,10.77
2018-10-17T15:40:23.284Z,10.90
2018-10-17T15:42:51.683Z,12.60
2018-10-17T15:45:20.320Z,10.87
2018-10-17T15:47:48.587Z,11.90
2018-10-17T15:50:16.947Z,13.47
2018-10-17T15:52:45.548Z,11.00
2018-10-17T15:55:13.915Z,10.87
2018-10-17T15:57:42.287Z,11.20
2018-10-17T16:00:11.387Z,16.23
2018-10-17T16:02:39.864Z,12.47
2018-10-17T16:05:09.859Z,11.10
2018-10-17T16:07:38.239Z,14.40
2018-10-17T16:10:07.033Z,13.50
2018-10-17T16:12:35.424Z,12.87
2018-10-17T16:15:03.823Z,12.33
2018-10-17T16:17:32.242Z,10.93
2018-10-17T16:20:00.586Z,15.10
2018-10-17T16:22:28.984Z,14.97
2018-10-17T16:24:57.479Z,13.57
2018-10-17T16:27:25.834Z,16.20
2018-10-17T16:29:54.645Z,19.40
2018-10-17T16:32:22.950Z,18.80
2018-10-17T16:34:51.348Z,17.00
2018-10-17T16:37:19.689Z,22.10
2018-10-17T16:39:48.054Z,24.40
2018-10-17T16:42:16.413Z,21.63
2018-10-17T16:44:44.770Z,22.87
2018-10-17T16:47:13.151Z,20.87
2018-10-17T16:49:41.607Z,18.07
2018-10-17T16:52:09.906Z,22.43
2018-10-17T16:54:38.325Z,21.90
2018-10-17T16:57:07.521Z,17.70
2018-10-17T16:59:35.879Z,19.13
2018-10-17T17:02:04.270Z,18.90
2018-10-17T17:04:32.852Z,20.60
2018-10-17T17:07:01.159Z,16.93
2018-10-17T17:09:29.526Z,16.43
2018-10-17T17:11:57.871Z,14.87
2018-10-17T17:14:26.452Z,18.10
2018-10-17T17:16:54.827Z,16.70
2018-10-17T17:19:23.240Z,16.80
2018-10-17T17:21:51.647Z,17.90
2018-10-17T17:24:20.035Z,17.03
2018-10-17T17:26:48.418Z,13.47
2018-10-17T17:29:16.827Z,18.70
2018-10-17T17:31:45.198Z,13.40
2018-10-17T17:34:13.607Z,14.07
2018-10-17T17:36:42.006Z,14.53
2018-10-17T17:39:10.462Z,15.37
2018-10-17T17:41:38.898Z,15.40
2018-10-17T17:44:07.299Z,14.10
2018-10-17T17:46:35.719Z,16.67
2018-10-17T17:49:04.368Z,16.00
2018-10-17T17:51:32.762Z,15.93
2018-10-17T17:54:01.172Z,18.93
2018-10-17T17:56:29.546Z,14.33
2018-10-17T17:58:57.949Z,14.43
2018-10-17T18:01:26.668Z,16.00
2018-10-17T18:03:55.087Z,16.53
2018-10-17T18:06:23.529Z,15.80
2018-10-17T18:08:51.917Z,16.33
2018-10-17T18:11:22.615Z,20.03
2018-10-17T18:13:51.848Z,13.70
2018-10-17T18:16:20.238Z,21.47
2018-10-17T18:18:48.647Z,14.60
2018-10-17T18:21:17.030Z,16.90
2018-10-17T18:23:45.634Z,16.47
2018-10-17T18:26:14.338Z,20.00
2018-10-17T18:28:43.202Z,16.90
2018-10-17T18:31:11.810Z,13.07
2018-10-17T18:33:40.219Z,19.13
2018-10-17T18:36:08.711Z,14.33
2018-10-17T18:38:37.112Z,12.83
2018-10-17T18:41:05.602Z,14.40
2018-10-17T18:43:33.951Z,15.00
2018-10-17T18:46:02.320Z,16.03
2018-10-17T18:48:30.651Z,13.00
2018-10-17T18:50:59.043Z,20.43
2018-10-17T18:53:27.434Z,14.53
2018-10-17T18:55:55.842Z,13.73
2018-10-17T18:58:24.177Z,13.80
2018-10-17T19:00:52.546Z,16.30
2018-10-17T19:03:20.914Z,13.97
2018-10-17T19:05:49.298Z,12.47
2018-10-17T19:08:17.763Z,13.10
2018-10-17T19:10:46.058Z,13.30
2018-10-17T19:13:14.422Z,12.07
2018-10-17T19:15:42.889Z,14.23
2018-10-17T19:18:11.208Z,16.10
2018-10-17T19:20:39.578Z,15.60
2018-10-17T19:23:07.934Z,12.73
2018-10-17T19:25:36.311Z,13.07
2018-10-17T19:28:04.710Z,13.40
2018-10-17T19:30:33.160Z,18.83
2018-10-17T19:33:01.596Z,13.67
2018-10-17T19:35:29.996Z,14.83
2018-10-17T19:37:58.358Z,14.20
2018-10-17T19:40:26.735Z,16.77
2018-10-17T19:42:55.122Z,15.30
2018-10-17T19:45:23.507Z,15.00
2018-10-17T19:47:51.906Z,16.10
2018-10-17T19:50:20.254Z,18.00
2018-10-17T19:52:48.628Z,14.23
2018-10-17T19:55:17.013Z,14.43
2018-10-17T19:57:45.365Z,14.07
2018-10-17T20:00:14.576Z,21.13
2018-10-17T20:02:43.465Z,21.60
2018-10-17T20:05:12.081Z,15.73
2018-10-17T20:07:40.886Z,22.33
2018-10-17T20:10:09.263Z,17.07
2018-10-17T20:12:37.687Z,15.50
2018-10-17T20:15:06.640Z,20.67
2018-10-17T20:17:34.987Z,20.03
2018-10-17T20:20:03.368Z,15.47
2018-10-17T20:22:31.799Z,15.80
2018-10-17T20:25:00.205Z,14.73
2018-10-17T20:27:28.536Z,16.53
2018-10-17T20:29:56.928Z,15.53
2018-10-17T20:32:25.300Z,17.03
2018-10-17T20:34:53.659Z,14.87
2018-10-17T20:37:22.024Z,14.40
2018-10-17T20:39:50.367Z,14.73
2018-10-17T20:42:18.817Z,14.43
2018-10-17T20:44:47.103Z,14.23
2018-10-17T20:47:15.474Z,13.53
2018-10-17T20:49:43.817Z,12.10
2018-10-17T20:52:12.224Z,18.37
2018-10-17T20:54:40.526Z,12.93
2018-10-17T20:57:08.886Z,15.20
2018-10-17T20:59:37.226Z,12.97
2018-10-17T21:02:05.679Z,13.23
2018-10-17T21:04:34.055Z,13.40
2018-10-17T21:07:02.439Z,12.93
2018-10-17T21:09:30.799Z,14.53
2018-10-17T21:11:59.159Z,15.93
2018-10-17T21:14:27.526Z,15.20
2018-10-17T21:16:55.866Z,14.07
2018-10-17T21:19:24.230Z,12.33
2018-10-17T21:21:52.610Z,12.30
2018-10-17T21:24:20.951Z,12.33
2018-10-17T21:26:49.370Z,15.73
2018-10-17T21:29:17.688Z,13.07
2018-10-17T21:31:46.058Z,16.13
2018-10-17T21:34:14.414Z,13.30
2018-10-17T21:36:42.787Z,13.83
2018-10-17T21:39:12.597Z,15.93
2018-10-17T21:41:40.986Z,15.83
2018-10-17T21:44:10.379Z,13.23
2018-10-17T21:46:39.144Z,13.27
2018-10-17T21:49:08.425Z,14.80
2018-10-17T21:51:36.786Z,14.13
2018-10-17T21:54:05.630Z,13.47
2018-10-17T21:56:33.999Z,22.17
2018-10-17T21:59:02.483Z,16.30
2018-10-17T22:01:30.970Z,17.50
2018-10-17T22:03:59.371Z,15.03
2018-10-17T22:06:27.852Z,18.37
2018-10-17T22:08:56.231Z,12.93
2018-10-17T22:11:24.619Z,18.57
2018-10-17T22:13:53.007Z,17.50
2018-10-17T22:16:23.611Z,16.63
2018-10-17T22:18:51.996Z,17.00
2018-10-17T22:21:20.437Z,16.60
2018-10-17T22:23:48.819Z,19.37
2018-10-17T22:26:17.304Z,19.30
2018-10-17T22:28:45.603Z,18.27
2018-10-17T22:31:14.003Z,16.00
2018-10-17T22:33:42.375Z,17.07
2018-10-17T22:36:10.774Z,20.43
2018-10-17T22:38:39.142Z,17.80
2018-10-17T22:41:07.571Z,17.13
2018-10-17T22:43:35.907Z,16.57
2018-10-17T22:46:04.370Z,20.23
2018-10-17T22:48:32.847Z,21.33
2018-10-17T22:51:01.247Z,19.23
2018-10-17T22:53:29.618Z,15.50
2018-10-17T22:55:58.039Z,15.70
2018-10-17T22:58:26.607Z,15.80
2018-10-17T23:00:55.028Z,15.83
2018-10-17T23:03:23.369Z,16.30
2018-10-17T23:05:51.783Z,15.23
2018-10-17T23:08:20.167Z,16.83
2018-10-17T23:10:48.499Z,16.10
2018-10-17T23:13:16.880Z,18.20
2018-10-17T23:15:45.218Z,17.80
2018-10-17T23:18:13.587Z,18.40
2018-10-17T23:20:41.931Z,23.30
2018-10-17T23:23:10.290Z,23.80
2018-10-17T23:25:38.674Z,21.43
2018-10-17T23:28:07.059Z,24.23
2018-10-17T23:30:35.399Z,25.80
2018-10-17T23:33:03.742Z,20.83
2018-10-17T23:35:32.079Z,21.50
2018-10-17T23:38:00.456Z,18.93
2018-10-17T23:40:28.792Z,25.63
2018-10-17T23:42:57.155Z,19.10
2018-10-17T23:45:25.566Z,19.83
2018-10-17T23:47:53.953Z,20.73
2018-10-17T23:50:22.297Z,23.17
2018-10-17T23:52:50.654Z,18.87
2018-10-17T23:55:19.034Z,19.90
2018-10-17T23:57:47.432Z,20.33
